EDLV/NRN METAR and TAF weather

Enter ICAO airport designator
Station Type Date Time Source
EDLV METAR 2019/04/26 03:50 UTC NOAA

EDLV 260350Z 20004KT CAVOK 10/09 Q1011


Station Type Date Time Source
EDLV Decoded METAR 2019/04/26 03:50 UTC NOAA

Niederrhein, Germany (EDLV) 51-36-09N 006-08-32E
Apr 25, 2019 - 11:50 PM EDT / 2019.04.26 0350 UTC
Wind: from the SSW (200 degrees) at 5 MPH (4 KT):0
Visibility: greater than 7 mile(s):0
Temperature: 50 F (10 C)
Dew Point: 48 F (9 C)
Relative Humidity: 93%
Pressure (altimeter): 29.85 in. Hg (1011 hPa)
ob: EDLV 260350Z 20004KT CAVOK 10/09 Q1011
cycle: 4

Station Type Date Time Source
EDLV TAF 2019/04/26 04:21 UTC NOAA

TAF TAF EDLV 260325Z 2604/2624 20004KT CAVOK
TEMPO 2604/2608 4500 -RA BKN014
TEMPO 2608/2613 26008KT

Example: see airport list